Sandberg, California
Current Conditions -  °F | °C
As of 12:48 AM on Monday 24 Nov 2014 (Local Time) from KSDB Reporting Station
Clear Clear  
Wind Chill: 40°   Ceiling: Unl
Heat Index: 47°   Visibility: 10mi
Dew Point: 15°   Wind: 20mph
Humidity: 28%   Direction: 340°NNW
Pressure: 30.27"   Gusts: NA
Location:  34.6849°N, 118.558°W
Report Text: KSDB 240848Z AUTO 34017KT 10SM CLR 08/M09 A3027 RMK AO2 SLP224 T00831094 58003 $
Loading
Personal Weather Stations






























Interactive Weather Map New forecast layout! Learn more

10-Day Weather Forecast

Advertisements
Track Severe Weather on mobile